sensor_id;sensor_type;location;lat;lon;timestamp;P1;P2;P0
83543;PMS5003;73487;54.448;-0.942;2023-10-19T09:38:51;8.60;8.40;4.20
83543;PMS5003;73487;54.448;-0.942;2023-10-19T09:41:17;8.80;8.00;4.00
83543;PMS5003;73487;54.448;-0.942;2023-10-19T09:43:46;8.25;7.00;4.75
83543;PMS5003;73487;54.448;-0.942;2023-10-19T09:46:12;6.00;5.00;2.00
83543;PMS5003;73487;54.448;-0.942;2023-10-19T09:48:42;3.00;3.00;1.00
83543;PMS5003;73487;54.448;-0.942;2023-10-19T09:51:08;2.00;2.00;1.00
83543;PMS5003;73487;54.448;-0.942;2023-10-19T09:53:33;1.00;1.00;0.75
83543;PMS5003;73487;54.448;-0.942;2023-10-19T09:55:59;1.00;1.00;0.00
83543;PMS5003;73487;54.448;-0.942;2023-10-19T09:58:25;0.00;0.00;0.00
83543;PMS5003;73487;54.448;-0.942;2023-10-19T10:00:52;0.50;0.50;0.00
83543;PMS5003;73487;54.448;-0.942;2023-10-19T10:06:01;0.00;0.00;0.00
83543;PMS5003;73487;54.448;-0.942;2023-10-19T10:10:51;0.00;0.00;0.00
83543;PMS5003;73487;54.448;-0.942;2023-10-19T10:15:52;0.00;0.00;0.00
83543;PMS5003;73487;54.448;-0.942;2023-10-19T10:18:17;0.00;0.00;0.00
83543;PMS5003;73487;54.448;-0.942;2023-10-19T10:20:42;0.00;0.00;0.00
83543;PMS5003;73487;54.448;-0.942;2023-10-19T10:23:20;0.00;0.00;0.00
83543;PMS5003;73487;54.448;-0.942;2023-10-19T10:25:45;0.00;0.00;0.00
83543;PMS5003;73487;54.448;-0.942;2023-10-19T10:28:12;0.00;0.00;0.00
83543;PMS5003;73487;54.448;-0.942;2023-10-19T10:30:37;0.00;0.00;0.00
83543;PMS5003;73487;54.448;-0.942;2023-10-19T10:36:06;0.00;0.00;0.00
83543;PMS5003;73487;54.448;-0.942;2023-10-19T10:38:34;0.00;0.00;0.00
83543;PMS5003;73487;54.448;-0.942;2023-10-19T10:41:00;0.00;0.00;0.00
83543;PMS5003;73487;54.448;-0.942;2023-10-19T10:43:26;0.50;0.50;0.00
83543;PMS5003;73487;54.448;-0.942;2023-10-19T10:45:51;0.50;0.50;0.00
83543;PMS5003;73487;54.448;-0.942;2023-10-19T10:48:18;0.00;0.00;0.00
83543;PMS5003;73487;54.448;-0.942;2023-10-19T10:50:43;1.00;0.00;0.00
83543;PMS5003;73487;54.448;-0.942;2023-10-19T10:53:10;1.00;1.00;0.00
83543;PMS5003;73487;54.448;-0.942;2023-10-19T10:55:35;1.00;1.00;0.25
83543;PMS5003;73487;54.448;-0.942;2023-10-19T10:58:00;0.00;0.00;0.00
83543;PMS5003;73487;54.448;-0.942;2023-10-19T11:00:25;0.00;0.00;0.00
83543;PMS5003;73487;54.448;-0.942;2023-10-19T11:03:04;1.00;1.00;0.00
83543;PMS5003;73487;54.448;-0.942;2023-10-19T11:05:29;1.25;1.25;1.00
83543;PMS5003;73487;54.448;-0.942;2023-10-19T11:10:29;1.00;1.00;0.75
83543;PMS5003;73487;54.448;-0.942;2023-10-19T11:13:04;1.00;1.00;0.75
83543;PMS5003;73487;54.448;-0.942;2023-10-19T11:15:29;2.00;2.00;1.00
83543;PMS5003;73487;54.448;-0.942;2023-10-19T11:17:54;3.00;3.00;1.00
83543;PMS5003;73487;54.448;-0.942;2023-10-19T11:20:23;2.40;2.00;1.00
83543;PMS5003;73487;54.448;-0.942;2023-10-19T11:22:48;3.00;2.75;1.00
83543;PMS5003;73487;54.448;-0.942;2023-10-19T11:25:17;2.00;2.00;1.00
83543;PMS5003;73487;54.448;-0.942;2023-10-19T11:27:42;2.00;2.00;0.25
83543;PMS5003;73487;54.448;-0.942;2023-10-19T11:30:08;3.00;3.00;2.00
83543;PMS5003;73487;54.448;-0.942;2023-10-19T11:32:36;3.25;3.25;1.50
83543;PMS5003;73487;54.448;-0.942;2023-10-19T11:35:02;1.75;1.75;1.00
83543;PMS5003;73487;54.448;-0.942;2023-10-19T11:37:27;4.75;4.50;2.00
83543;PMS5003;73487;54.448;-0.942;2023-10-19T11:39:52;2.40;2.00;1.20
83543;PMS5003;73487;54.448;-0.942;2023-10-19T11:42:17;1.00;1.00;0.00
83543;PMS5003;73487;54.448;-0.942;2023-10-19T11:44:43;0.25;0.25;0.25
83543;PMS5003;73487;54.448;-0.942;2023-10-19T11:47:08;1.00;1.00;0.00
83543;PMS5003;73487;54.448;-0.942;2023-10-19T11:49:33;1.00;1.00;0.80
83543;PMS5003;73487;54.448;-0.942;2023-10-19T11:51:58;0.00;0.00;0.00
83543;PMS5003;73487;54.448;-0.942;2023-10-19T11:54:23;1.00;1.00;0.00
83543;PMS5003;73487;54.448;-0.942;2023-10-19T11:56:48;1.00;1.00;0.00
83543;PMS5003;73487;54.448;-0.942;2023-10-19T11:59:13;2.00;2.00;1.75
83543;PMS5003;73487;54.448;-0.942;2023-10-19T12:01:38;2.40;1.80;1.00
83543;PMS5003;73487;54.448;-0.942;2023-10-19T12:04:04;3.00;2.20;1.20
83543;PMS5003;73487;54.448;-0.942;2023-10-19T12:06:29;1.50;1.00;1.00
83543;PMS5003;73487;54.448;-0.942;2023-10-19T12:08:54;1.00;1.00;0.60
83543;PMS5003;73487;54.448;-0.942;2023-10-19T12:11:19;2.00;2.00;1.00
83543;PMS5003;73487;54.448;-0.942;2023-10-19T12:13:45;2.60;2.60;2.00
83543;PMS5003;73487;54.448;-0.942;2023-10-19T12:16:11;2.50;2.50;1.25
83543;PMS5003;73487;54.448;-0.942;2023-10-19T12:18:36;3.75;3.50;3.00
83543;PMS5003;73487;54.448;-0.942;2023-10-19T12:21:01;5.00;4.60;3.00
83543;PMS5003;73487;54.448;-0.942;2023-10-19T12:23:26;4.75;4.75;3.00
83543;PMS5003;73487;54.448;-0.942;2023-10-19T12:25:52;4.00;3.60;2.40
83543;PMS5003;73487;54.448;-0.942;2023-10-19T12:28:17;3.75;3.25;2.00
83543;PMS5003;73487;54.448;-0.942;2023-10-19T12:30:43;4.25;4.00;2.00
83543;PMS5003;73487;54.448;-0.942;2023-10-19T12:33:08;8.20;6.80;4.00
83543;PMS5003;73487;54.448;-0.942;2023-10-19T12:35:33;5.25;5.25;3.00
83543;PMS5003;73487;54.448;-0.942;2023-10-19T12:37:58;5.75;5.75;3.00
83543;PMS5003;73487;54.448;-0.942;2023-10-19T12:40:23;5.20;5.00;3.00
83543;PMS5003;73487;54.448;-0.942;2023-10-19T12:42:49;3.80;3.00;1.00
83543;PMS5003;73487;54.448;-0.942;2023-10-19T12:45:14;5.20;5.20;3.00
83543;PMS5003;73487;54.448;-0.942;2023-10-19T12:47:39;8.00;6.00;4.00
83543;PMS5003;73487;54.448;-0.942;2023-10-19T12:50:04;7.00;6.40;3.80
83543;PMS5003;73487;54.448;-0.942;2023-10-19T12:52:29;8.75;8.50;5.25
83543;PMS5003;73487;54.448;-0.942;2023-10-19T12:54:54;8.40;5.80;3.00
83543;PMS5003;73487;54.448;-0.942;2023-10-19T12:57:19;6.20;6.00;3.00
83543;PMS5003;73487;54.448;-0.942;2023-10-19T12:59:45;5.00;5.00;3.60
83543;PMS5003;73487;54.448;-0.942;2023-10-19T13:02:10;5.40;5.40;3.00
83543;PMS5003;73487;54.448;-0.942;2023-10-19T13:04:35;8.80;7.60;5.60
83543;PMS5003;73487;54.448;-0.942;2023-10-19T13:07:00;6.40;6.40;4.00
83543;PMS5003;73487;54.448;-0.942;2023-10-19T13:09:25;7.20;6.40;3.20
83543;PMS5003;73487;54.448;-0.942;2023-10-19T13:11:51;6.25;6.25;4.00
83543;PMS5003;73487;54.448;-0.942;2023-10-19T13:14:16;6.20;4.40;2.00
83543;PMS5003;73487;54.448;-0.942;2023-10-19T13:16:41;6.40;5.80;2.40
83543;PMS5003;73487;54.448;-0.942;2023-10-19T13:19:06;7.60;6.80;4.20
83543;PMS5003;73487;54.448;-0.942;2023-10-19T13:21:31;6.60;6.60;4.00
83543;PMS5003;73487;54.448;-0.942;2023-10-19T13:23:56;6.80;6.20;5.00
83543;PMS5003;73487;54.448;-0.942;2023-10-19T13:26:21;5.00;5.00;3.20
83543;PMS5003;73487;54.448;-0.942;2023-10-19T13:28:46;5.60;4.20;3.20
83543;PMS5003;73487;54.448;-0.942;2023-10-19T13:31:12;7.60;7.00;5.00
83543;PMS5003;73487;54.448;-0.942;2023-10-19T13:33:37;8.75;7.75;4.50
83543;PMS5003;73487;54.448;-0.942;2023-10-19T13:36:02;9.80;9.40;4.60
83543;PMS5003;73487;54.448;-0.942;2023-10-19T13:38:28;7.50;6.00;3.00
83543;PMS5003;73487;54.448;-0.942;2023-10-19T13:40:53;7.00;6.25;4.00
83543;PMS5003;73487;54.448;-0.942;2023-10-19T13:43:18;7.00;6.60;4.00
83543;PMS5003;73487;54.448;-0.942;2023-10-19T13:45:43;7.00;7.00;4.00
83543;PMS5003;73487;54.448;-0.942;2023-10-19T14:49:10;;1;
83543;PMS5003;73487;54.448;-0.942;2023-10-19T15:02:33;2;2;
83543;PMS5003;73487;54.448;-0.942;2023-10-19T15:03:33;4;3;
83543;PMS5003;73487;54.448;-0.942;2023-10-19T15:04:33;3;2;
83543;PMS5003;73487;54.448;-0.942;2023-10-19T15:05:34;1;1;
83543;PMS5003;73487;54.448;-0.942;2023-10-19T15:06:34;2;1;
83543;PMS5003;73487;54.448;-0.942;2023-10-19T15:07:35;1;1;
83543;PMS5003;73487;54.448;-0.942;2023-10-19T15:15:49;3;2;1
83543;PMS5003;73487;54.448;-0.942;2023-10-19T15:16:50;3;3;2
83543;PMS5003;73487;54.448;-0.942;2023-10-19T15:17:50;2;2;1
83543;PMS5003;73487;54.448;-0.942;2023-10-19T15:18:50;3;2;1
83543;PMS5003;73487;54.448;-0.942;2023-10-19T15:19:51;1;1;1
83543;PMS5003;73487;54.448;-0.942;2023-10-19T15:20:51;1;1;1
83543;PMS5003;73487;54.448;-0.942;2023-10-19T15:21:52;3;2;1
83543;PMS5003;73487;54.448;-0.942;2023-10-19T15:22:52;5;4;1
83543;PMS5003;73487;54.448;-0.942;2023-10-19T15:23:52;3;1;1
83543;PMS5003;73487;54.448;-0.942;2023-10-19T15:24:53;2;1;0
83543;PMS5003;73487;54.448;-0.942;2023-10-19T15:26:42;1;1;1
83543;PMS5003;73487;54.448;-0.942;2023-10-19T15:27:43;1;1;0
83543;PMS5003;73487;54.448;-0.942;2023-10-19T15:28:42;2;1;1
83543;PMS5003;73487;54.448;-0.942;2023-10-19T15:29:43;3;3;2
83543;PMS5003;73487;54.448;-0.942;2023-10-19T15:30:43;0;0;0
83543;PMS5003;73487;54.448;-0.942;2023-10-19T15:32:02;3;2;1
83543;PMS5003;73487;54.448;-0.942;2023-10-19T15:33:03;1;1;0
83543;PMS5003;73487;54.448;-0.942;2023-10-19T15:34:03;4;2;0
83543;PMS5003;73487;54.448;-0.942;2023-10-19T15:35:17;2;1;0
83543;PMS5003;73487;54.448;-0.942;2023-10-19T15:36:17;3;2;1
83543;PMS5003;73487;54.448;-0.942;2023-10-19T15:37:18;2;2;0
83543;PMS5003;73487;54.448;-0.942;2023-10-19T15:38:19;2;2;1
83543;PMS5003;73487;54.448;-0.942;2023-10-19T15:39:18;1;1;0
83543;PMS5003;73487;54.448;-0.942;2023-10-19T15:40:18;2;2;1
83543;PMS5003;73487;54.448;-0.942;2023-10-19T15:41:19;2;2;1
83543;PMS5003;73487;54.448;-0.942;2023-10-19T15:42:19;3;3;1
83543;PMS5003;73487;54.448;-0.942;2023-10-19T15:43:20;3;2;1
83543;PMS5003;73487;54.448;-0.942;2023-10-19T15:44:20;2;2;1
83543;PMS5003;73487;54.448;-0.942;2023-10-19T15:45:20;0;0;0
83543;PMS5003;73487;54.448;-0.942;2023-10-19T15:46:21;1;1;1
83543;PMS5003;73487;54.448;-0.942;2023-10-19T15:47:21;2;2;1
83543;PMS5003;73487;54.448;-0.942;2023-10-19T15:48:21;1;1;0
83543;PMS5003;73487;54.448;-0.942;2023-10-19T15:49:22;2;2;0
83543;PMS5003;73487;54.448;-0.942;2023-10-19T15:50:22;1;1;1
83543;PMS5003;73487;54.448;-0.942;2023-10-19T15:51:23;0;0;0
83543;PMS5003;73487;54.448;-0.942;2023-10-19T15:52:23;1;1;0
83543;PMS5003;73487;54.448;-0.942;2023-10-19T15:53:23;2;2;1
83543;PMS5003;73487;54.448;-0.942;2023-10-19T15:54:24;2;2;1
83543;PMS5003;73487;54.448;-0.942;2023-10-19T15:55:24;2;2;1
83543;PMS5003;73487;54.448;-0.942;2023-10-19T15:56:25;4;4;2
83543;PMS5003;73487;54.448;-0.942;2023-10-19T15:57:25;6;5;2
83543;PMS5003;73487;54.448;-0.942;2023-10-19T15:59:10;11;7;4
83543;PMS5003;73487;54.448;-0.942;2023-10-19T16:00:11;8;8;5
83543;PMS5003;73487;54.448;-0.942;2023-10-19T16:01:11;7;7;4
83543;PMS5003;73487;54.448;-0.942;2023-10-19T16:02:12;8;8;6
83543;PMS5003;73487;54.448;-0.942;2023-10-19T16:03:12;11;9;5
83543;PMS5003;73487;54.448;-0.942;2023-10-19T16:04:12;8;7;5
83543;PMS5003;73487;54.448;-0.942;2023-10-19T16:05:12;9;9;6
83543;PMS5003;73487;54.448;-0.942;2023-10-19T16:06:13;9;8;5
83543;PMS5003;73487;54.448;-0.942;2023-10-19T16:07:14;10;10;6
83543;PMS5003;73487;54.448;-0.942;2023-10-19T16:08:14;9;8;6
83543;PMS5003;73487;54.448;-0.942;2023-10-19T16:09:14;8;8;4
83543;PMS5003;73487;54.448;-0.942;2023-10-19T16:11:21;9;9;5
83543;PMS5003;73487;54.448;-0.942;2023-10-19T16:12:21;10;9;5
83543;PMS5003;73487;54.448;-0.942;2023-10-19T16:13:22;11;10;6
83543;PMS5003;73487;54.448;-0.942;2023-10-19T16:14:22;17;17;10
83543;PMS5003;73487;54.448;-0.942;2023-10-19T16:15:22;12;12;7
83543;PMS5003;73487;54.448;-0.942;2023-10-19T16:16:24;14;13;9
83543;PMS5003;73487;54.448;-0.942;2023-10-19T16:17:23;14;12;7
83543;PMS5003;73487;54.448;-0.942;2023-10-19T16:18:24;14;13;8
83543;PMS5003;73487;54.448;-0.942;2023-10-19T16:19:24;17;15;11
83543;PMS5003;73487;54.448;-0.942;2023-10-19T16:20:24;12;12;8
83543;PMS5003;73487;54.448;-0.942;2023-10-19T16:21:25;16;15;8
83543;PMS5003;73487;54.448;-0.942;2023-10-19T16:22:25;10;9;6
83543;PMS5003;73487;54.448;-0.942;2023-10-19T16:23:26;15;13;8
83543;PMS5003;73487;54.448;-0.942;2023-10-19T16:24:26;11;11;8
83543;PMS5003;73487;54.448;-0.942;2023-10-19T16:25:26;13;12;7
83543;PMS5003;73487;54.448;-0.942;2023-10-19T16:26:27;15;15;9
83543;PMS5003;73487;54.448;-0.942;2023-10-19T16:27:27;11;11;7
83543;PMS5003;73487;54.448;-0.942;2023-10-19T16:28:28;16;13;9
83543;PMS5003;73487;54.448;-0.942;2023-10-19T16:29:28;13;13;7
83543;PMS5003;73487;54.448;-0.942;2023-10-19T16:31:18;15;14;7
83543;PMS5003;73487;54.448;-0.942;2023-10-19T16:32:19;16;15;8
83543;PMS5003;73487;54.448;-0.942;2023-10-19T16:33:19;16;15;9
83543;PMS5003;73487;54.448;-0.942;2023-10-19T16:34:20;16;16;10
83543;PMS5003;73487;54.448;-0.942;2023-10-19T16:35:20;16;15;10
83543;PMS5003;73487;54.448;-0.942;2023-10-19T16:36:20;16;15;9
83543;PMS5003;73487;54.448;-0.942;2023-10-19T16:37:21;15;15;8
83543;PMS5003;73487;54.448;-0.942;2023-10-19T16:38:21;13;13;9
83543;PMS5003;73487;54.448;-0.942;2023-10-19T16:39:22;14;14;8
83543;PMS5003;73487;54.448;-0.942;2023-10-19T16:40:22;16;15;9
83543;PMS5003;73487;54.448;-0.942;2023-10-19T16:41:23;18;17;10
83543;PMS5003;73487;54.448;-0.942;2023-10-19T16:42:23;17;17;10
83543;PMS5003;73487;54.448;-0.942;2023-10-19T16:44:07;17;17;10
83543;PMS5003;73487;54.448;-0.942;2023-10-19T16:45:07;16;16;9
83543;PMS5003;73487;54.448;-0.942;2023-10-19T16:46:07;16;16;11
83543;PMS5003;73487;54.448;-0.942;2023-10-19T16:47:08;19;17;11
83543;PMS5003;73487;54.448;-0.942;2023-10-19T16:50:46;16;15;9
83543;PMS5003;73487;54.448;-0.942;2023-10-19T16:53:16;20;20;11
83543;PMS5003;73487;54.448;-0.942;2023-10-19T16:55:46;18;17;11
83543;PMS5003;73487;54.448;-0.942;2023-10-19T16:58:17;16;15;9
83543;PMS5003;73487;54.448;-0.942;2023-10-19T17:00:47;16;16;8
83543;PMS5003;73487;54.448;-0.942;2023-10-19T17:03:18;22;21;11
83543;PMS5003;73487;54.448;-0.942;2023-10-19T17:05:48;23;20;11
83543;PMS5003;73487;54.448;-0.942;2023-10-19T17:08:19;21;21;12
83543;PMS5003;73487;54.448;-0.942;2023-10-19T17:10:49;20;19;11
83543;PMS5003;73487;54.448;-0.942;2023-10-19T17:13:19;20;19;10
83543;PMS5003;73487;54.448;-0.942;2023-10-19T17:15:50;24;22;12
83543;PMS5003;73487;54.448;-0.942;2023-10-19T17:18:21;17;16;11
83543;PMS5003;73487;54.448;-0.942;2023-10-19T17:20:51;18;15;10
83543;PMS5003;73487;54.448;-0.942;2023-10-19T17:23:21;15;14;9
83543;PMS5003;73487;54.448;-0.942;2023-10-19T17:25:52;20;20;10
83543;PMS5003;73487;54.448;-0.942;2023-10-19T17:28:23;22;22;12
83543;PMS5003;73487;54.448;-0.942;2023-10-19T17:30:53;16;15;8
83543;PMS5003;73487;54.448;-0.942;2023-10-19T17:33:24;15;14;8
83543;PMS5003;73487;54.448;-0.942;2023-10-19T17:35:54;11;11;6
83543;PMS5003;73487;54.448;-0.942;2023-10-19T17:38:25;15;14;9
83543;PMS5003;73487;54.448;-0.942;2023-10-19T17:41:02;18;16;10
83543;PMS5003;73487;54.448;-0.942;2023-10-19T17:43:26;16;15;9
83543;PMS5003;73487;54.448;-0.942;2023-10-19T17:45:56;11;11;7
83543;PMS5003;73487;54.448;-0.942;2023-10-19T17:48:26;14;14;8
83543;PMS5003;73487;54.448;-0.942;2023-10-19T17:50:57;12;12;7
83543;PMS5003;73487;54.448;-0.942;2023-10-19T17:53:27;12;11;7
83543;PMS5003;73487;54.448;-0.942;2023-10-19T17:55:58;16;13;8
83543;PMS5003;73487;54.448;-0.942;2023-10-19T17:58:28;14;14;8
83543;PMS5003;73487;54.448;-0.942;2023-10-19T18:00:58;14;12;6
83543;PMS5003;73487;54.448;-0.942;2023-10-19T18:03:30;10;9;5
83543;PMS5003;73487;54.448;-0.942;2023-10-19T18:05:59;12;11;6
83543;PMS5003;73487;54.448;-0.942;2023-10-19T18:08:30;10;10;6
83543;PMS5003;73487;54.448;-0.942;2023-10-19T18:11:00;9;9;6
83543;PMS5003;73487;54.448;-0.942;2023-10-19T18:13:30;10;9;5
83543;PMS5003;73487;54.448;-0.942;2023-10-19T18:16:04;10;9;6
83543;PMS5003;73487;54.448;-0.942;2023-10-19T18:18:31;12;11;6
83543;PMS5003;73487;54.448;-0.942;2023-10-19T18:23:32;9;9;6
83543;PMS5003;73487;54.448;-0.942;2023-10-19T18:26:03;15;13;8
83543;PMS5003;73487;54.448;-0.942;2023-10-19T18:28:33;14;14;8
83543;PMS5003;73487;54.448;-0.942;2023-10-19T18:31:04;10;10;6
83543;PMS5003;73487;54.448;-0.942;2023-10-19T18:33:34;12;11;6
83543;PMS5003;73487;54.448;-0.942;2023-10-19T18:36:05;16;15;7
83543;PMS5003;73487;54.448;-0.942;2023-10-19T18:38:35;14;13;7
83543;PMS5003;73487;54.448;-0.942;2023-10-19T18:41:06;12;12;6
83543;PMS5003;73487;54.448;-0.942;2023-10-19T18:43:36;12;12;6
83543;PMS5003;73487;54.448;-0.942;2023-10-19T18:46:06;15;13;7
83543;PMS5003;73487;54.448;-0.942;2023-10-19T18:48:37;11;11;6
83543;PMS5003;73487;54.448;-0.942;2023-10-19T18:51:07;14;13;7
83543;PMS5003;73487;54.448;-0.942;2023-10-19T18:53:37;12;12;8
83543;PMS5003;73487;54.448;-0.942;2023-10-19T18:56:08;15;13;8
83543;PMS5003;73487;54.448;-0.942;2023-10-19T18:58:38;10;10;5
83543;PMS5003;73487;54.448;-0.942;2023-10-19T19:01:09;14;12;7
83543;PMS5003;73487;54.448;-0.942;2023-10-19T19:03:39;11;10;4
83543;PMS5003;73487;54.448;-0.942;2023-10-19T19:06:10;13;12;6
83543;PMS5003;73487;54.448;-0.942;2023-10-19T19:08:40;11;10;5
83543;PMS5003;73487;54.448;-0.942;2023-10-19T19:11:11;8;8;5
83543;PMS5003;73487;54.448;-0.942;2023-10-19T19:13:41;12;10;6
83543;PMS5003;73487;54.448;-0.942;2023-10-19T19:16:11;12;11;7
83543;PMS5003;73487;54.448;-0.942;2023-10-19T19:18:42;16;13;7
83543;PMS5003;73487;54.448;-0.942;2023-10-19T19:21:12;15;11;7
83543;PMS5003;73487;54.448;-0.942;2023-10-19T19:23:43;12;12;6
83543;PMS5003;73487;54.448;-0.942;2023-10-19T19:26:13;14;13;7
83543;PMS5003;73487;54.448;-0.942;2023-10-19T19:28:44;13;11;5
83543;PMS5003;73487;54.448;-0.942;2023-10-19T19:31:18;14;14;8
83543;PMS5003;73487;54.448;-0.942;2023-10-19T19:33:48;14;14;8
83543;PMS5003;73487;54.448;-0.942;2023-10-19T19:36:15;15;13;7
83543;PMS5003;73487;54.448;-0.942;2023-10-19T19:38:45;18;14;8
83543;PMS5003;73487;54.448;-0.942;2023-10-19T19:41:16;20;18;10
83543;PMS5003;73487;54.448;-0.942;2023-10-19T19:43:46;13;12;7
83543;PMS5003;73487;54.448;-0.942;2023-10-19T19:46:17;15;14;8
83543;PMS5003;73487;54.448;-0.942;2023-10-19T19:48:47;14;13;8
83543;PMS5003;73487;54.448;-0.942;2023-10-19T19:51:18;14;13;5
83543;PMS5003;73487;54.448;-0.942;2023-10-19T19:53:48;20;19;9
83543;PMS5003;73487;54.448;-0.942;2023-10-19T19:56:19;16;14;8
83543;PMS5003;73487;54.448;-0.942;2023-10-19T19:58:49;18;17;10
83543;PMS5003;73487;54.448;-0.942;2023-10-19T20:01:20;15;14;9
83543;PMS5003;73487;54.448;-0.942;2023-10-19T20:03:50;15;14;7
83543;PMS5003;73487;54.448;-0.942;2023-10-19T20:06:20;17;16;9
83543;PMS5003;73487;54.448;-0.942;2023-10-19T20:08:51;13;13;8
83543;PMS5003;73487;54.448;-0.942;2023-10-19T20:11:21;22;20;9
83543;PMS5003;73487;54.448;-0.942;2023-10-19T20:13:52;14;13;7
83543;PMS5003;73487;54.448;-0.942;2023-10-19T20:16:22;17;16;8
83543;PMS5003;73487;54.448;-0.942;2023-10-19T20:18:53;16;13;7
83543;PMS5003;73487;54.448;-0.942;2023-10-19T20:21:23;15;12;7
83543;PMS5003;73487;54.448;-0.942;2023-10-19T20:23:53;20;18;9
83543;PMS5003;73487;54.448;-0.942;2023-10-19T20:26:24;12;11;6
83543;PMS5003;73487;54.448;-0.942;2023-10-19T20:28:54;16;16;8
83543;PMS5003;73487;54.448;-0.942;2023-10-19T20:31:24;17;15;8
83543;PMS5003;73487;54.448;-0.942;2023-10-19T20:33:55;15;15;9
83543;PMS5003;73487;54.448;-0.942;2023-10-19T20:36:25;20;19;10
83543;PMS5003;73487;54.448;-0.942;2023-10-19T20:38:56;15;15;10
83543;PMS5003;73487;54.448;-0.942;2023-10-19T20:41:26;19;15;7
83543;PMS5003;73487;54.448;-0.942;2023-10-19T20:43:56;16;14;9
83543;PMS5003;73487;54.448;-0.942;2023-10-19T20:46:27;15;14;9
83543;PMS5003;73487;54.448;-0.942;2023-10-19T20:48:57;18;16;8
83543;PMS5003;73487;54.448;-0.942;2023-10-19T20:51:28;17;15;8
83543;PMS5003;73487;54.448;-0.942;2023-10-19T20:53:59;18;13;7
83543;PMS5003;73487;54.448;-0.942;2023-10-19T20:56:29;23;20;10
83543;PMS5003;73487;54.448;-0.942;2023-10-19T20:58:59;17;16;9
83543;PMS5003;73487;54.448;-0.942;2023-10-19T21:01:29;24;23;13
83543;PMS5003;73487;54.448;-0.942;2023-10-19T21:04:00;23;21;12
83543;PMS5003;73487;54.448;-0.942;2023-10-19T21:06:30;23;20;12
83543;PMS5003;73487;54.448;-0.942;2023-10-19T21:09:01;28;26;12
83543;PMS5003;73487;54.448;-0.942;2023-10-19T21:11:31;23;22;12
83543;PMS5003;73487;54.448;-0.942;2023-10-19T21:14:02;22;21;11
83543;PMS5003;73487;54.448;-0.942;2023-10-19T21:16:33;31;28;13
83543;PMS5003;73487;54.448;-0.942;2023-10-19T21:19:03;26;22;12
83543;PMS5003;73487;54.448;-0.942;2023-10-19T21:21:33;22;21;10
83543;PMS5003;73487;54.448;-0.942;2023-10-19T21:24:04;29;25;12
83543;PMS5003;73487;54.448;-0.942;2023-10-19T21:26:34;23;21;11
83543;PMS5003;73487;54.448;-0.942;2023-10-19T21:29:05;19;18;9
83543;PMS5003;73487;54.448;-0.942;2023-10-19T21:31:35;26;26;13
83543;PMS5003;73487;54.448;-0.942;2023-10-19T21:34:06;29;24;12
83543;PMS5003;73487;54.448;-0.942;2023-10-19T21:36:36;43;29;12
83543;PMS5003;73487;54.448;-0.942;2023-10-19T21:39:07;40;29;10
83543;PMS5003;73487;54.448;-0.942;2023-10-19T21:41:38;41;33;11
83543;PMS5003;73487;54.448;-0.942;2023-10-19T21:44:08;46;28;10
83543;PMS5003;73487;54.448;-0.942;2023-10-19T21:46:39;55;36;13
83543;PMS5003;73487;54.448;-0.942;2023-10-19T21:49:09;50;34;11
83543;PMS5003;73487;54.448;-0.942;2023-10-19T21:51:40;52;32;9
83543;PMS5003;73487;54.448;-0.942;2023-10-19T21:54:10;35;23;8
83543;PMS5003;73487;54.448;-0.942;2023-10-19T21:58:22;39;25;7
83543;PMS5003;73487;54.448;-0.942;2023-10-19T22:00:52;53;33;11
83543;PMS5003;73487;54.448;-0.942;2023-10-19T22:03:23;63;40;14
83543;PMS5003;73487;54.448;-0.942;2023-10-19T22:05:54;58;33;9
83543;PMS5003;73487;54.448;-0.942;2023-10-19T22:08:24;48;32;11
83543;PMS5003;73487;54.448;-0.942;2023-10-19T22:10:55;57;32;10
83543;PMS5003;73487;54.448;-0.942;2023-10-19T22:13:26;50;33;9
83543;PMS5003;73487;54.448;-0.942;2023-10-19T22:15:56;57;35;11
83543;PMS5003;73487;54.448;-0.942;2023-10-19T22:18:27;66;38;14
83543;PMS5003;73487;54.448;-0.942;2023-10-19T22:20:57;59;38;13
83543;PMS5003;73487;54.448;-0.942;2023-10-19T22:23:28;70;44;13
83543;PMS5003;73487;54.448;-0.942;2023-10-19T22:25:59;73;46;19
83543;PMS5003;73487;54.448;-0.942;2023-10-19T22:28:30;68;41;15
83543;PMS5003;73487;54.448;-0.942;2023-10-19T22:31:00;65;37;11
83543;PMS5003;73487;54.448;-0.942;2023-10-19T22:33:31;59;34;11
83543;PMS5003;73487;54.448;-0.942;2023-10-19T22:36:01;74;46;19
83543;PMS5003;73487;54.448;-0.942;2023-10-19T22:38:32;71;46;19
83543;PMS5003;73487;54.448;-0.942;2023-10-19T22:41:03;68;44;20
83543;PMS5003;73487;54.448;-0.942;2023-10-19T22:43:34;51;30;10
83543;PMS5003;73487;54.448;-0.942;2023-10-19T22:46:04;16;15;8
83543;PMS5003;73487;54.448;-0.942;2023-10-19T22:48:35;18;15;5
83543;PMS5003;73487;54.448;-0.942;2023-10-19T22:51:05;48;29;9
83543;PMS5003;73487;54.448;-0.942;2023-10-19T22:53:35;48;23;9
83543;PMS5003;73487;54.448;-0.942;2023-10-19T22:56:06;77;50;19
83543;PMS5003;73487;54.448;-0.942;2023-10-19T22:58:37;80;44;12
83543;PMS5003;73487;54.448;-0.942;2023-10-19T23:01:08;76;43;16
83543;PMS5003;73487;54.448;-0.942;2023-10-19T23:03:39;91;53;23
83543;PMS5003;73487;54.448;-0.942;2023-10-19T23:06:09;68;40;13
83543;PMS5003;73487;54.448;-0.942;2023-10-19T23:08:40;74;43;14
83543;PMS5003;73487;54.448;-0.942;2023-10-19T23:11:11;76;46;13
83543;PMS5003;73487;54.448;-0.942;2023-10-19T23:13:42;76;42;15
83543;PMS5003;73487;54.448;-0.942;2023-10-19T23:16:12;67;45;18
83543;PMS5003;73487;54.448;-0.942;2023-10-19T23:18:43;70;44;13
83543;PMS5003;73487;54.448;-0.942;2023-10-19T23:21:14;68;35;10
83543;PMS5003;73487;54.448;-0.942;2023-10-19T23:23:44;56;30;9
83543;PMS5003;73487;54.448;-0.942;2023-10-19T23:26:15;70;42;14
83543;PMS5003;73487;54.448;-0.942;2023-10-19T23:28:47;69;45;17
83543;PMS5003;73487;54.448;-0.942;2023-10-19T23:31:17;73;44;14
83543;PMS5003;73487;54.448;-0.942;2023-10-19T23:33:48;65;40;12
83543;PMS5003;73487;54.448;-0.942;2023-10-19T23:36:19;56;28;8
83543;PMS5003;73487;54.448;-0.942;2023-10-19T23:38:49;46;32;8
83543;PMS5003;73487;54.448;-0.942;2023-10-19T23:41:20;35;22;5
83543;PMS5003;73487;54.448;-0.942;2023-10-19T23:43:50;17;12;6
83543;PMS5003;73487;54.448;-0.942;2023-10-19T23:46:21;8;7;4
83543;PMS5003;73487;54.448;-0.942;2023-10-19T23:48:51;7;5;3
83543;PMS5003;73487;54.448;-0.942;2023-10-19T23:51:22;6;5;3
83543;PMS5003;73487;54.448;-0.942;2023-10-19T23:53:52;4;4;2
83543;PMS5003;73487;54.448;-0.942;2023-10-19T23:56:22;2;2;1
83543;PMS5003;73487;54.448;-0.942;2023-10-19T23:58:53;2;1;1
